Time;durP1;ratioP1;P1;durP2;ratioP2;P2;SDS_P1;SDS_P2;PMS_P1;PMS_P2;Temp;Humidity;BMP_temperature;BMP_pressure;BME280_temperature;BME280_humidity;BME280_pressure;Samples;Min_cycle;Max_cycle;Signal;HPM_P1;HPM_P2
2021/10/30 00:00:10;;;;;;;;;;;;;;;10.20;51.71;100442.75;4432367;32;35695;-84
2021/10/30 00:02:40;;;;;;;11.93;10.68;;;;;;;9.95;52.54;100443.03;4430634;32;34452;-83
2021/10/30 00:05:10;;;;;;;14.25;12.55;;;;;;;10.00;52.45;100444.34;4431830;32;33513;-84
2021/10/30 00:07:40;;;;;;;10.80;9.07;;;;;;;9.67;53.37;100436.44;4421350;32;32617;-83
2021/10/30 00:10:12;;;;;;;14.45;11.60;;;;;;;9.85;53.11;100440.28;4419530;32;34840;-84
2021/10/30 00:12:40;;;;;;;18.95;12.63;;;;;;;9.69;53.61;100436.31;4439336;32;33669;-83
2021/10/30 00:15:08;;;;;;;17.05;10.55;;;;;;;10.00;52.80;100438.19;4416389;32;33792;-83
2021/10/30 00:17:36;;;;;;;17.67;12.23;;;;;;;9.95;52.92;100427.94;4430136;32;33236;-85
2021/10/30 00:20:04;;;;;;;16.10;12.32;;;;;;;9.94;52.98;100433.37;4431057;32;34338;-84
2021/10/30 00:22:32;;;;;;;14.95;9.60;;;;;;;9.94;52.95;100423.56;4432815;32;34180;-83
2021/10/30 00:24:59;;;;;;;22.27;13.25;;;;;;;9.74;53.66;100420.84;4416451;32;32679;-84
2021/10/30 00:27:27;;;;;;;17.40;12.85;;;;;;;9.75;53.56;100415.41;4434136;32;34139;-84
2021/10/30 00:29:55;;;;;;;16.20;10.98;;;;;;;9.71;53.82;100419.28;4437939;32;37229;-84
2021/10/30 00:32:22;;;;;;;17.55;11.90;;;;;;;9.99;52.78;100413.41;4432236;32;34314;-84
2021/10/30 00:34:50;;;;;;;17.17;11.27;;;;;;;9.87;53.00;100414.44;4435453;32;34149;-85
2021/10/30 00:37:18;;;;;;;14.85;11.07;;;;;;;9.73;53.55;100416.50;4430497;32;33862;-84
2021/10/30 00:39:46;;;;;;;13.85;12.45;;;;;;;9.81;53.42;100412.25;4439477;32;34622;-83
2021/10/30 00:42:14;;;;;;;13.38;11.70;;;;;;;9.90;53.21;100408.84;4433100;32;33545;-85
2021/10/30 00:44:42;;;;;;;17.17;11.82;;;;;;;9.74;53.46;100411.06;4437556;32;33097;-85
2021/10/30 00:47:09;;;;;;;;;;;;;;;9.82;53.35;100415.78;4437933;32;33454;-84
2021/10/30 00:49:38;;;;;;;15.55;12.25;;;;;;;9.97;52.86;100417.16;4427370;32;35674;-83
2021/10/30 00:52:06;;;;;;;17.80;11.18;;;;;;;10.14;52.21;100406.87;4429543;32;33652;-86
2021/10/30 00:54:36;;;;;;;;;;;;;;;9.95;52.84;100414.66;4435915;32;33031;-85
2021/10/30 00:57:05;;;;;;;12.23;10.52;;;;;;;9.93;53.15;100402.44;4435404;32;34340;-84
2021/10/30 00:59:32;;;;;;;15.55;11.25;;;;;;;9.85;53.26;100408.41;4418425;32;35812;-85
2021/10/30 01:02:00;;;;;;;14.50;13.10;;;;;;;9.92;53.13;100398.94;4441585;32;34558;-84
2021/10/30 01:04:30;;;;;;;10.80;9.75;;;;;;;9.80;53.52;100391.12;4430507;32;34181;-84
2021/10/30 01:07:00;;;;;;;11.18;10.15;;;;;;;9.98;53.02;100381.62;4436450;32;33989;-83
2021/10/30 01:09:28;;;;;;;11.25;10.15;;;;;;;9.73;53.56;100376.66;4431820;32;35787;-84
2021/10/30 01:11:56;;;;;;;12.90;11.20;;;;;;;9.96;53.17;100375.59;4430861;32;34341;-84
2021/10/30 01:14:23;;;;;;;21.52;12.23;;;;;;;9.59;54.37;100372.47;4432486;32;33956;-84
2021/10/30 01:17:01;;;;;;;23.73;10.70;;;;;;;9.68;54.05;100371.72;4419995;32;33516;-85
2021/10/30 01:19:30;;;;;;;10.45;9.45;;;;;;;9.74;53.80;100375.69;4432868;32;35176;-83
2021/10/30 01:21:59;;;;;;;18.45;11.23;;;;;;;9.75;53.89;100370.22;4435983;32;34303;-84
2021/10/30 01:24:27;;;;;;;16.85;10.63;;;;;;;9.76;53.66;100371.94;4428754;32;33596;-84
2021/10/30 01:26:56;;;;;;;13.82;10.63;;;;;;;9.87;53.55;100374.56;4430747;32;34612;-84
2021/10/30 01:29:24;;;;;;;13.32;11.75;;;;;;;9.63;54.08;100371.25;4432310;32;34597;-83
2021/10/30 01:31:53;;;;;;;20.37;12.00;;;;;;;9.76;53.87;100363.97;4426979;32;33390;-84
2021/10/30 01:34:26;;;;;;;12.95;11.88;;;;;;;9.85;53.49;100368.53;4434988;32;34292;-84
2021/10/30 01:36:55;;;;;;;12.00;10.38;;;;;;;9.76;53.93;100357.81;4441674;32;35062;-84
2021/10/30 01:39:25;;;;;;;16.42;12.57;;;;;;;9.61;54.35;100361.69;4424332;32;33302;-84
2021/10/30 01:41:53;;;;;;;12.10;10.77;;;;;;;9.74;53.97;100338.50;4433632;32;34027;-84
2021/10/30 01:44:20;;;;;;;;;;;;;;;9.90;53.60;100349.56;4431221;32;34078;-85
2021/10/30 01:46:48;;;;;;;;;;;;;;;9.58;54.72;100343.38;4420754;32;34837;-84
2021/10/30 01:49:16;;;;;;;14.87;8.50;;;;;;;9.67;54.41;100339.97;4435051;32;35576;-84
2021/10/30 01:51:43;;;;;;;16.15;9.88;;;;;;;9.62;54.61;100342.16;4420800;32;33633;-84
2021/10/30 01:54:11;;;;;;;11.12;9.95;;;;;;;9.63;54.60;100336.69;4430113;32;31637;-83
2021/10/30 01:56:39;;;;;;;12.85;9.90;;;;;;;9.41;55.15;100335.91;4438448;32;33775;-84
2021/10/30 01:59:06;;;;;;;12.15;11.00;;;;;;;9.35;55.66;100339.91;4441505;32;36957;-85
2021/10/30 02:01:35;;;;;;;;;;;;;;;9.69;54.60;100345.97;4439706;32;32763;-85
2021/10/30 02:04:04;;;;;;;15.77;11.57;;;;;;;9.59;54.92;100345.03;4436472;32;34429;-85
2021/10/30 02:06:32;;;;;;;13.55;10.98;;;;;;;9.70;54.69;100342.34;4431158;32;33294;-84
2021/10/30 02:09:00;;;;;;;;;;;;;;;9.56;55.01;100346.13;4432666;32;35710;-84
2021/10/30 02:11:27;;;;;;;18.98;12.18;;;;;;;9.80;54.39;100353.91;4418340;32;33680;-85
2021/10/30 02:13:55;;;;;;;10.68;9.55;;;;;;;9.58;55.03;100359.31;4434706;32;33126;-84
2021/10/30 02:16:22;;;;;;;18.08;11.23;;;;;;;9.83;54.47;100357.16;4420773;32;33772;-84
2021/10/30 02:18:50;;;;;;;14.25;11.18;;;;;;;10.02;53.95;100359.16;4434969;32;33769;-84
2021/10/30 02:21:18;;;;;;;12.95;11.20;;;;;;;9.95;54.23;100360.62;4436396;32;33916;-84
2021/10/30 02:23:45;;;;;;;17.10;9.57;;;;;;;9.95;54.14;100360.62;4435541;32;34097;-84
2021/10/30 02:26:13;;;;;;;12.88;10.50;;;;;;;10.11;53.79;100353.94;4437213;32;33203;-84
2021/10/30 02:28:44;;;;;;;11.60;9.90;;;;;;;10.07;53.83;100354.31;4422457;32;34558;-86
2021/10/30 02:31:13;;;;;;;15.90;11.18;;;;;;;9.86;54.41;100364.91;4433103;32;33619;-85
2021/10/30 02:33:41;;;;;;;;;;;;;;;10.03;54.08;100359.06;4442486;32;32858;-84
2021/10/30 02:36:09;;;;;;;10.70;8.65;;;;;;;9.86;54.47;100359.59;4434358;32;33869;-84
2021/10/30 02:38:37;;;;;;;12.95;10.38;;;;;;;9.75;54.83;100354.28;4440683;32;34573;-84
2021/10/30 02:41:05;;;;;;;21.90;11.60;;;;;;;9.98;54.15;100355.91;4437307;32;34712;-84
2021/10/30 02:43:35;;;;;;;17.65;12.10;;;;;;;10.00;54.10;100355.78;4431760;32;33558;-84
2021/10/30 02:46:03;;;;;;;13.45;8.68;;;;;;;9.95;54.16;100364.16;4435895;32;33596;-85
2021/10/30 02:48:31;;;;;;;16.10;11.00;;;;;;;10.07;53.79;100363.16;4423927;32;33217;-84
2021/10/30 02:50:59;;;;;;;11.35;10.27;;;;;;;9.87;54.21;100353.31;4438672;32;34802;-85
2021/10/30 02:53:27;;;;;;;18.25;11.30;;;;;;;9.90;54.39;100355.69;4432110;32;32260;-84
2021/10/30 02:55:55;;;;;;;16.02;10.85;;;;;;;10.12;53.72;100352.16;4429156;32;33915;-85
2021/10/30 02:58:22;;;;;;;19.37;10.48;;;;;;;9.83;54.48;100357.16;4431658;32;34550;-85
2021/10/30 03:00:50;;;;;;;14.68;10.43;;;;;;;9.76;54.73;100363.13;4432523;32;34390;-84
2021/10/30 03:03:18;;;;;;;13.65;12.07;;;;;;;9.92;54.38;100366.22;4436937;32;33052;-84
2021/10/30 03:05:46;;;;;;;16.55;10.88;;;;;;;9.55;55.46;100368.34;4433809;32;33445;-84
2021/10/30 03:08:13;;;;;;;13.75;10.90;;;;;;;9.72;55.11;100369.66;4430189;32;35159;-84
2021/10/30 03:10:42;;;;;;;14.02;11.05;;;;;;;9.85;54.60;100376.50;4436117;32;34560;-84
2021/10/30 03:13:10;;;;;;;10.73;9.57;;;;;;;9.83;54.70;100367.78;4438497;32;34025;-84
2021/10/30 03:15:37;;;;;;;13.35;9.35;;;;;;;10.06;54.03;100371.25;4438661;32;33719;-84
2021/10/30 03:18:05;;;;;;;18.77;16.42;;;;;;;10.09;53.88;100366.53;4430361;32;35084;-84
2021/10/30 03:20:33;;;;;;;31.50;20.55;;;;;;;10.17;53.55;100369.41;4433636;32;35228;-84
2021/10/30 03:23:01;;;;;;;42.83;27.27;;;;;;;10.12;53.66;100373.41;4434940;32;34049;-84
2021/10/30 03:25:30;;;;;;;62.13;41.67;;;;;;;9.89;54.46;100377.06;4431061;32;33175;-84
2021/10/30 03:27:57;;;;;;;;;;;;;;;10.10;53.78;100373.53;4434214;32;35917;-84
2021/10/30 03:30:25;;;;;;;100.82;63.38;;;;;;;10.11;53.80;100366.41;4435620;32;34512;-84
2021/10/30 03:32:53;;;;;;;92.07;54.78;;;;;;;10.12;53.61;100360.13;4434063;32;33449;-84
2021/10/30 03:35:20;;;;;;;58.08;37.67;;;;;;;10.01;54.10;100363.63;4433491;32;33988;-84
2021/10/30 03:37:48;;;;;;;29.35;21.80;;;;;;;9.89;54.53;100362.00;4434165;32;34788;-84
2021/10/30 03:40:16;;;;;;;22.62;18.55;;;;;;;9.73;55.06;100358.87;4430490;32;33999;-84
2021/10/30 03:42:43;;;;;;;27.25;18.42;;;;;;;9.67;55.25;100369.19;4435908;32;32685;-84
2021/10/30 03:45:11;;;;;;;14.73;11.60;;;;;;;9.76;55.26;100358.66;4435992;32;33853;-84
2021/10/30 03:47:38;;;;;;;19.52;13.13;;;;;;;9.56;55.93;100366.56;4435127;32;34410;-85
2021/10/30 03:50:06;;;;;;;17.42;13.15;;;;;;;9.47;56.33;100364.62;4429345;32;33995;-84
2021/10/30 03:52:34;;;;;;;11.63;8.80;;;;;;;9.54;56.22;100369.31;4422343;32;31844;-83
2021/10/30 03:55:03;;;;;;;;;;;;;;;9.63;56.04;100367.75;4433087;32;34747;-84
2021/10/30 03:57:30;;;;;;;9.07;7.57;;;;;;;9.32;57.14;100357.88;4443175;32;34503;-85
2021/10/30 03:59:58;;;;;;;13.38;10.27;;;;;;;9.60;56.42;100360.00;4431680;32;33780;-83
2021/10/30 04:02:26;;;;;;;12.48;11.38;;;;;;;9.27;57.47;100365.41;4431013;32;31712;-84
2021/10/30 04:04:54;;;;;;;10.68;9.55;;;;;;;9.31;57.52;100362.37;4429182;32;33735;-84
2021/10/30 04:07:22;;;;;;;;;;;;;;;9.36;57.33;100362.84;4440376;32;35813;-84
2021/10/30 04:09:50;;;;;;;14.95;9.27;;;;;;;9.41;57.24;100362.47;4428773;32;34060;-84
2021/10/30 04:12:18;;;;;;;11.45;10.38;;;;;;;9.19;58.01;100354.53;4434305;32;32670;-84
2021/10/30 04:14:45;;;;;;;14.00;11.27;;;;;;;9.41;57.31;100362.47;4434121;32;33258;-84
2021/10/30 04:17:14;;;;;;;12.65;9.07;;;;;;;9.01;58.58;100359.50;4432941;32;36084;-84
2021/10/30 04:19:42;;;;;;;10.90;9.98;;;;;;;9.03;58.81;100348.75;4422545;32;34714;-84
2021/10/30 04:22:09;;;;;;;11.52;9.77;;;;;;;9.37;57.70;100347.75;4435064;32;33509;-84
2021/10/30 04:24:37;;;;;;;13.65;10.15;;;;;;;9.35;57.75;100349.69;4408480;32;32134;-84
2021/10/30 04:27:05;;;;;;;14.87;10.95;;;;;;;9.00;58.65;100349.81;4433416;32;34258;-84
2021/10/30 04:29:32;;;;;;;11.40;10.27;;;;;;;9.20;58.22;100345.59;4429811;32;34235;-83
2021/10/30 04:32:02;;;;;;;12.43;10.95;;;;;;;8.96;59.06;100344.88;4433472;32;35377;-85
2021/10/30 04:34:51;;;;;;;16.08;9.32;;;;;;;9.32;57.99;100348.13;4432118;32;34940;-84
2021/10/30 04:37:19;;;;;;;14.70;10.65;;;;;;;9.15;58.51;100345.13;4436706;32;35189;-84
2021/10/30 04:39:48;;;;;;;;;;;;;;;8.97;59.10;100346.59;4424472;32;32858;-84
2021/10/30 04:42:17;;;;;;;12.75;10.88;;;;;;;9.23;58.53;100353.31;4421118;32;33692;-84
2021/10/30 04:44:46;;;;;;;19.67;11.93;;;;;;;9.15;58.63;100340.66;4418356;32;33138;-84
2021/10/30 04:47:15;;;;;;;12.88;11.55;;;;;;;9.24;58.41;100344.38;4431150;32;34135;-84
2021/10/30 04:49:45;;;;;;;18.85;11.18;;;;;;;9.01;59.02;100340.94;4435384;32;33554;-85
2021/10/30 04:52:14;;;;;;;12.95;9.80;;;;;;;9.18;58.62;100347.53;4432734;32;32705;-83
2021/10/30 04:54:42;;;;;;;12.07;9.65;;;;;;;9.14;58.89;100344.28;4433665;32;32910;-83
2021/10/30 04:57:09;;;;;;;;;;;;;;;9.13;58.81;100344.41;4434125;32;34933;-84
2021/10/30 04:59:37;;;;;;;14.93;9.57;;;;;;;9.18;58.66;100342.25;4436591;32;35414;-84
2021/10/30 05:02:05;;;;;;;12.80;8.95;;;;;;;9.02;59.39;100341.75;4432636;32;34165;-84
2021/10/30 05:04:33;;;;;;;12.05;10.45;;;;;;;9.08;59.37;100344.75;4418597;32;34073;-84
2021/10/30 05:07:02;;;;;;;16.52;12.23;;;;;;;8.94;59.75;100342.37;4433771;32;34519;-84
2021/10/30 05:09:31;;;;;;;14.13;10.10;;;;;;;9.34;58.45;100338.22;4434781;32;34094;-85
2021/10/30 05:11:58;;;;;;;12.02;10.13;;;;;;;9.28;58.56;100340.53;4418382;32;33220;-84
2021/10/30 05:14:26;;;;;;;10.90;9.88;;;;;;;9.34;58.50;100340.88;4429674;32;34539;-84
2021/10/30 05:16:54;;;;;;;;;;;;;;;9.12;59.23;100340.91;4437721;32;34036;-84
2021/10/30 05:19:21;;;;;;;14.38;10.98;;;;;;;9.24;59.19;100349.69;4437068;32;34390;-83
2021/10/30 05:21:49;;;;;;;10.77;9.70;;;;;;;9.37;58.71;100351.25;4431327;32;34525;-84
2021/10/30 05:24:16;;;;;;;13.80;10.90;;;;;;;9.56;58.17;100351.44;4431665;32;33340;-84
2021/10/30 05:26:44;;;;;;;11.95;10.68;;;;;;;9.62;58.06;100342.16;4434993;32;35419;-84
2021/10/30 05:29:12;;;;;;;;;;;;;;;9.57;57.98;100342.53;4439574;32;34190;-84
2021/10/30 05:31:40;;;;;;;15.27;9.07;;;;;;;9.64;57.92;100345.53;4435392;32;33525;-84
2021/10/30 05:34:08;;;;;;;18.27;10.50;;;;;;;9.59;58.01;100337.94;4435728;32;33667;-85
2021/10/30 05:36:39;;;;;;;16.25;9.05;;;;;;;9.70;57.89;100339.69;4434535;32;35795;-85
2021/10/30 05:39:13;;;;;;;12.07;10.70;;;;;;;9.51;58.56;100345.69;4433164;32;34033;-84
2021/10/30 05:41:41;;;;;;;14.85;10.70;;;;;;;9.32;59.39;100340.16;4433739;32;33583;-84
2021/10/30 05:44:09;;;;;;;12.13;10.38;;;;;;;9.63;58.28;100341.19;4416257;32;31634;-84
2021/10/30 05:46:37;;;;;;;12.07;10.40;;;;;;;9.57;58.82;100347.84;4429016;32;34173;-84
2021/10/30 05:49:10;;;;;;;15.88;10.88;;;;;;;9.71;58.43;100341.38;4436994;32;33918;-84
2021/10/30 05:51:37;;;;;;;9.77;8.90;;;;;;;9.52;59.32;100352.69;4434473;32;32757;-84
2021/10/30 05:54:05;;;;;;;;;;;;;;;9.54;59.39;100349.91;4433569;32;34699;-83
2021/10/30 05:56:32;;;;;;;10.48;9.50;;;;;;;9.66;59.24;100351.56;4431541;32;35175;-84
2021/10/30 05:59:02;;;;;;;15.25;9.60;;;;;;;9.62;59.71;100347.47;4441964;32;35512;-84
2021/10/30 06:01:30;;;;;;;;;;;;;;;9.51;60.35;100351.00;4427107;32;32949;-84
2021/10/30 06:04:01;;;;;;;11.20;8.98;;;;;;;9.50;60.72;100346.66;4421643;32;32697;-84
2021/10/30 06:06:28;;;;;;;9.82;8.90;;;;;;;9.37;61.24;100355.72;4441098;32;33440;-85
2021/10/30 06:08:56;;;;;;;10.70;9.40;;;;;;;9.68;60.42;100350.47;4431147;32;34012;-86
2021/10/30 06:11:24;;;;;;;14.73;10.43;;;;;;;9.56;61.22;100356.75;4424123;32;33327;-85
2021/10/30 06:13:52;;;;;;;9.63;8.25;;;;;;;9.74;60.65;100349.13;4435536;32;33753;-83
2021/10/30 06:16:21;;;;;;;13.93;9.25;;;;;;;9.77;60.67;100352.37;4434628;32;35379;-84
2021/10/30 06:18:50;;;;;;;26.45;13.13;;;;;;;9.91;60.47;100352.06;4435740;32;34902;-84
2021/10/30 06:21:18;;;;;;;15.82;10.80;;;;;;;9.83;60.98;100354.50;4434870;32;33306;-84
2021/10/30 06:23:48;;;;;;;14.50;10.38;;;;;;;9.80;61.24;100361.88;4436340;32;33940;-85
2021/10/30 06:26:17;;;;;;;10.43;9.43;;;;;;;9.70;61.59;100356.50;4431782;32;35992;-85
2021/10/30 06:28:46;;;;;;;10.98;9.95;;;;;;;10.08;60.39;100356.00;4429400;32;32796;-84
2021/10/30 06:31:14;;;;;;;16.98;11.27;;;;;;;9.96;60.60;100376.47;4418803;32;32708;-84
2021/10/30 06:33:43;;;;;;;18.12;11.48;;;;;;;10.17;60.03;100366.75;4426903;32;34257;-84
2021/10/30 06:36:11;;;;;;;;;;;;;;;10.17;59.94;100363.22;4428105;32;34061;-84
2021/10/30 06:38:38;;;;;;;22.75;10.90;;;;;;;10.40;59.17;100378.94;4438094;32;34902;-84
2021/10/30 06:41:08;;;;;;;14.70;10.20;;;;;;;10.28;59.50;100377.31;4438314;32;32131;-84
2021/10/30 06:43:56;;;;;;;12.65;10.73;;;;;;;10.27;59.54;100388.06;4433223;32;33082;-84
2021/10/30 06:46:24;;;;;;;;;;;;;;;10.16;60.06;100385.47;4440307;32;34828;-85
2021/10/30 06:48:55;;;;;;;13.02;9.57;;;;;;;10.22;59.98;100387.62;4421886;32;33872;-84
2021/10/30 06:51:24;;;;;;;20.90;10.25;;;;;;;10.55;58.85;100387.44;4441699;32;32757;-85
2021/10/30 06:53:52;;;;;;;11.48;9.93;;;;;;;10.47;59.25;100392.59;4434653;32;33003;-84
2021/10/30 06:56:20;;;;;;;11.68;10.43;;;;;;;10.28;60.07;100389.78;4430963;32;34047;-83
2021/10/30 06:58:48;;;;;;;17.48;11.27;;;;;;;10.64;58.68;100390.19;4417056;32;33210;-84
2021/10/30 07:01:16;;;;;;;18.00;10.95;;;;;;;10.76;58.87;100396.28;4415328;32;32547;-84
2021/10/30 07:03:44;;;;;;;19.50;12.37;;;;;;;10.75;59.02;100389.28;4437087;32;34069;-84
2021/10/30 07:06:12;;;;;;;11.32;10.05;;;;;;;11.14;57.83;100386.66;4424330;32;34967;-84
2021/10/30 07:08:40;;;;;;;10.88;9.77;;;;;;;11.01;58.21;100394.03;4434084;32;34399;-85
2021/10/30 07:11:08;;;;;;;11.27;10.00;;;;;;;11.18;57.55;100390.75;4429807;32;33458;-84
2021/10/30 07:13:35;;;;;;;14.65;11.95;;;;;;;11.13;57.65;100392.13;4434752;32;33983;-84
2021/10/30 07:16:03;;;;;;;16.00;11.75;;;;;;;11.06;57.97;100398.97;4435146;32;35067;-84
2021/10/30 07:18:31;;;;;;;24.50;12.98;;;;;;;11.59;56.65;100395.97;4430665;32;34020;-84
2021/10/30 07:20:58;;;;;;;15.98;10.10;;;;;;;11.62;56.89;100404.53;4430536;32;33746;-84
2021/10/30 07:23:27;;;;;;;11.45;10.35;;;;;;;11.86;55.67;100405.03;4436520;32;34464;-85
2021/10/30 07:25:54;;;;;;;14.50;9.63;;;;;;;11.90;55.70;100405.59;4437931;32;34959;-87
2021/10/30 07:28:22;;;;;;;;;;;;;;;12.10;55.14;100407.31;4440514;32;35078;-84
2021/10/30 07:30:50;;;;;;;11.02;10.05;;;;;;;12.28;54.58;100397.63;4437186;32;33585;-84
2021/10/30 07:33:17;;;;;;;21.77;10.20;;;;;;;12.32;54.57;100399.03;4429911;32;33652;-86
2021/10/30 07:35:45;;;;;;;11.48;10.43;;;;;;;12.11;55.23;100403.66;4434699;32;34939;-84
2021/10/30 07:38:13;;;;;;;14.20;11.20;;;;;;;12.34;54.91;100416.59;4434119;32;34355;-84
2021/10/30 07:40:41;;;;;;;11.55;10.55;;;;;;;12.29;55.63;100407.31;4437243;32;32833;-84
2021/10/30 07:43:08;;;;;;;9.52;8.23;;;;;;;12.72;53.77;100415.69;4438454;32;33839;-84
2021/10/30 07:45:38;;;;;;;10.88;9.82;;;;;;;12.83;53.47;100415.56;4436016;32;35727;-86
2021/10/30 07:48:08;;;;;;;9.18;8.43;;;;;;;12.81;53.33;100423.72;4430696;32;34545;-84
2021/10/30 07:50:38;;;;;;;10.02;9.02;;;;;;;12.79;53.74;100424.81;4424619;32;33502;-81
2021/10/30 07:53:06;;;;;;;;;;;;;;;12.86;53.39;100417.94;4432171;32;33140;-82
2021/10/30 07:55:35;;;;;;;21.23;9.18;;;;;;;12.75;54.03;100418.09;4413475;32;35228;-83
2021/10/30 07:58:04;;;;;;;11.43;8.52;;;;;;;12.77;53.71;100419.63;4434150;32;34448;-84
2021/10/30 08:00:31;;;;;;;25.37;9.20;;;;;;;12.92;53.41;100420.88;4427032;32;32348;-84
2021/10/30 08:02:59;;;;;;;;;;;;;;;13.07;52.95;100415.94;4437467;32;34605;-85
2021/10/30 08:05:27;;;;;;;13.35;7.07;;;;;;;12.93;53.53;100417.22;4432705;32;35446;-86
2021/10/30 08:07:55;;;;;;;12.45;8.80;;;;;;;13.42;52.35;100413.44;4432549;32;34326;-85
2021/10/30 08:10:26;;;;;;;14.90;9.43;;;;;;;13.53;52.33;100407.88;4441594;32;33494;-82
2021/10/30 08:12:55;;;;;;;11.12;8.40;;;;;;;13.77;51.32;100411.69;4434906;32;33758;-86
2021/10/30 08:15:22;;;;;;;9.05;8.35;;;;;;;13.73;51.89;100412.12;4438875;32;35537;-84
2021/10/30 08:18:00;;;;;;;18.60;8.45;;;;;;;13.91;51.00;100407.66;4434796;32;34991;-83
2021/10/30 08:20:28;;;;;;;15.38;8.27;;;;;;;14.05;50.50;100397.28;4416994;32;31706;-84
2021/10/30 08:23:01;;;;;;;9.18;8.25;;;;;;;13.79;51.51;100409.69;4431311;32;34011;-87
2021/10/30 08:25:29;;;;;;;9.77;8.77;;;;;;;13.75;51.47;100402.97;4437793;32;34108;-82
2021/10/30 08:27:57;;;;;;;13.43;9.18;;;;;;;14.01;51.03;100395.94;4430157;32;33985;-86
2021/10/30 08:30:27;;;;;;;26.95;10.02;;;;;;;14.20;50.55;100395.81;4420155;32;31595;-86
2021/10/30 09:09:54;;;;;;;6.28;5.62;;;;;;;15.18;48.72;100365.91;4467104;26;34231;-80
2021/10/30 09:12:50;;;;;;;6.97;6.37;;;;;;;15.19;48.76;100369.41;4364590;27;33595;-87
2021/10/30 09:15:22;;;;;;;8.52;6.80;;;;;;;15.48;48.50;100369.97;4380224;32;33285;-88
2021/10/30 09:17:50;;;;;;;8.05;6.68;;;;;;;15.81;47.50;100366.37;4383683;32;34765;-86
2021/10/30 09:20:18;;;;;;;8.20;7.35;;;;;;;16.03;47.93;100371.09;4384225;32;34595;-88
2021/10/30 09:22:53;;;;;;;8.57;7.78;;;;;;;16.08;47.05;100372.31;4355158;32;32448;-86
2021/10/30 09:25:21;;;;;;;8.63;6.37;;;;;;;16.06;47.16;100374.31;4388452;32;34244;-87
2021/10/30 09:27:54;;;;;;;14.13;9.50;;;;;;;16.31;46.52;100359.91;4381981;32;34211;-88
2021/10/30 09:30:54;;;;;;;6.35;5.72;;;;;;;16.58;46.02;100354.25;4380569;32;34255;-86
2021/10/30 09:33:22;;;;;;;8.18;7.12;;;;;;;16.69;46.20;100369.19;4368801;32;33289;-87
2021/10/30 10:37:24;;;;;;;10.65;5.78;;;;;;;18.22;41.68;100304.63;4471991;26;33285;-86
2021/10/30 10:40:32;;;;;;;5.45;4.78;;;;;;;17.85;42.89;100303.75;4459686;27;35237;-80
2021/10/30 10:43:01;;;;;;;4.60;3.87;;;;;;;18.15;42.29;100290.19;4443895;32;33577;-79
2021/10/30 10:45:49;;;;;;;;;;;;;;;18.43;41.62;100296.72;4405851;32;32806;-80
2021/10/30 10:48:22;;;;;;;5.18;4.65;;;;;;;18.54;41.54;100290.94;4416924;32;33811;-80
2021/10/30 10:51:23;;;;;;;5.97;4.47;;;;;;;18.65;41.01;100287.78;4422690;32;34193;-77
2021/10/30 10:53:57;;;;;;;7.65;5.15;;;;;;;18.70;40.05;100277.25;4442369;32;35658;-80
2021/10/30 10:56:26;;;;;;;4.10;3.42;;;;;;;18.60;40.73;100268.59;4416919;32;33468;-79
2021/10/30 10:59:07;;;;;;;4.55;4.20;;;;;;;18.62;40.77;100274.66;4264204;26;32333;-81
2021/10/30 11:01:37;;;;;;;5.05;4.57;;;;;;;18.95;39.89;100269.75;4414459;32;36019;-83
2021/10/30 11:04:12;;;;;;;4.80;2.72;;;;;;;18.79;40.04;100265.38;4413317;32;34640;-82
2021/10/30 11:06:45;;;;;;;3.97;3.65;;;;;;;19.23;39.31;100260.00;4401671;32;33659;-82
2021/10/30 11:09:15;;;;;;;3.37;2.75;;;;;;;19.11;39.19;100256.06;4401864;32;32627;-84
2021/10/30 11:11:43;;;;;;;19.67;6.18;;;;;;;19.16;39.31;100250.97;4410898;32;33442;-81
2021/10/30 11:14:10;;;;;;;4.25;3.65;;;;;;;19.30;38.86;100250.13;4413720;32;34419;-82
2021/10/30 11:16:43;;;;;;;4.05;2.75;;;;;;;19.13;39.06;100254.03;4391644;32;31816;-81
2021/10/30 11:19:41;;;;;;;11.95;3.60;;;;;;;19.16;38.99;100261.75;4410957;32;33888;-81
2021/10/30 11:22:15;;;;;;;4.30;2.97;;;;;;;19.22;38.50;100256.47;4414832;32;34310;-80
2021/10/30 11:24:49;;;;;;;6.18;4.47;;;;;;;19.10;37.92;100251.72;4412124;32;35278;-83
2021/10/30 11:27:16;;;;;;;3.35;3.08;;;;;;;19.01;38.00;100240.19;4425372;32;33284;-83
2021/10/30 11:29:49;;;;;;;3.60;3.08;;;;;;;19.37;37.84;100242.97;4407626;32;34415;-83
2021/10/30 11:32:18;;;;;;;3.58;2.85;;;;;;;19.20;37.67;100236.94;4409970;32;35242;-83
2021/10/30 11:34:57;;;;;;;3.53;3.22;;;;;;;19.17;37.95;100234.56;4411392;32;34183;-84
2021/10/30 11:37:25;;;;;;;6.20;2.37;;;;;;;19.71;36.68;100221.56;4416514;32;34753;-82
2021/10/30 11:39:53;;;;;;;2.92;2.65;;;;;;;19.46;36.71;100220.22;4424844;32;34279;-81
2021/10/30 11:42:21;;;;;;;4.30;3.37;;;;;;;19.78;36.05;100219.72;4415437;32;35888;-84
2021/10/30 11:44:54;;;;;;;4.10;3.37;;;;;;;19.78;35.97;100219.72;4411185;32;35884;-82
2021/10/30 11:47:29;;;;;;;7.47;2.37;;;;;;;19.62;36.39;100211.91;4413599;32;31874;-84
2021/10/30 12:01:49;;;;;;;2.10;2.00;;;;;;;19.49;36.55;100211.75;4362365;32;33353;-80
2021/10/30 12:04:21;;;;;;;4.62;2.78;;;;;;;19.44;36.61;100211.50;4374647;32;35223;-81
2021/10/30 12:07:13;;;;;;;2.37;2.00;;;;;;;19.33;36.61;100212.81;4374060;32;34370;-85
2021/10/30 12:09:44;;;;;;;4.90;1.40;;;;;;;19.93;35.42;100215.94;4362897;32;33097;-85
2021/10/30 12:12:23;;;;;;;1.75;1.65;;;;;;;19.57;36.00;100219.72;4346891;32;33458;-83
2021/10/30 12:14:54;;;;;;;3.12;2.70;;;;;;;19.89;35.48;100213.81;4372835;32;33204;-87
2021/10/30 12:17:29;;;;;;;1.87;1.70;;;;;;;19.52;35.94;100206.81;4375306;32;33714;-84
2021/10/30 12:20:08;;;;;;;5.57;3.30;;;;;;;19.96;35.15;100196.66;4354808;32;32370;-83
2021/10/30 12:22:44;;;;;;;2.67;2.45;;;;;;;19.08;36.35;100203.34;4373727;32;33085;-84
2021/10/30 12:25:27;;;;;;;3.45;2.12;;;;;;;19.56;35.91;100202.69;4354057;32;34598;-84
2021/10/30 12:27:56;;;;;;;5.55;3.22;;;;;;;19.89;35.33;100198.47;4353400;32;34744;-85
2021/10/30 12:30:31;;;;;;;2.47;1.80;;;;;;;20.02;34.92;100193.16;4366504;32;34204;-86
2021/10/30 12:33:11;;;;;;;2.12;1.98;;;;;;;19.99;35.71;100195.44;4367069;32;33332;-85
2021/10/30 12:35:43;;;;;;;2.83;2.47;;;;;;;20.13;35.20;100194.53;4366975;32;34372;-86
2021/10/30 12:38:30;;;;;;;3.35;1.95;;;;;;;20.24;35.33;100185.87;4354114;32;33762;-85
2021/10/30 12:40:58;;;;;;;2.53;2.03;;;;;;;19.94;35.43;100184.38;4365598;32;35111;-84
2021/10/30 12:43:30;;;;;;;4.15;2.78;;;;;;;20.16;34.59;100186.03;4363706;32;33270;-88
2021/10/30 12:46:05;;;;;;;3.30;3.08;;;;;;;20.33;35.08;100193.66;4366094;32;34731;-86
2021/10/30 12:48:42;;;;;;;2.85;1.58;;;;;;;20.41;34.26;100181.88;4368058;32;34077;-85
2021/10/30 12:51:09;;;;;;;1.17;1.08;;;;;;;20.49;34.31;100170.91;4354587;32;33130;-85
2021/10/30 12:53:37;;;;;;;7.57;3.00;;;;;;;20.30;34.63;100182.41;4379032;32;34082;-84
2021/10/30 12:56:06;;;;;;;2.05;1.77;;;;;;;20.09;35.09;100183.28;4354160;32;34336;-84
2021/10/30 12:58:35;;;;;;;1.85;1.75;;;;;;;19.92;35.57;100189.13;4366566;32;33963;-86
2021/10/30 13:01:02;;;;;;;4.43;2.83;;;;;;;20.60;34.37;100184.69;4367375;32;32934;-85
2021/10/30 13:03:45;;;;;;;5.60;2.12;;;;;;;21.16;33.23;100180.84;4375151;32;34655;-85
2021/10/30 13:06:14;;;;;;;1.77;1.65;;;;;;;22.72;31.14;100164.72;4377654;32;34383;-83
2021/10/30 13:09:00;;;;;;;2.92;2.62;;;;;;;22.51;30.44;100157.69;4376904;32;34538;-83
2021/10/30 13:11:40;;;;;;;1.95;1.85;;;;;;;22.01;31.23;100168.34;4353775;32;34012;-86
2021/10/30 13:14:08;;;;;;;3.83;2.30;;;;;;;22.01;31.66;100174.56;4314234;32;1279788;-85
2021/10/30 13:16:36;;;;;;;4.15;2.25;;;;;;;22.15;31.36;100167.28;4364346;32;35297;-86
2021/10/30 13:19:06;;;;;;;3.85;2.70;;;;;;;22.49;30.91;100173.34;4366260;32;34868;-84
2021/10/30 13:21:34;;;;;;;;;;;;;;;22.76;30.38;100169.50;4365081;32;35053;-84
2021/10/30 13:24:02;;;;;;;6.07;2.75;;;;;;;23.29;29.76;100164.75;4378767;32;33611;-85
2021/10/30 13:26:31;;;;;;;2.87;2.62;;;;;;;22.92;29.80;100163.59;4366408;32;33470;-87
2021/10/30 13:28:59;;;;;;;3.17;2.90;;;;;;;22.51;30.90;100157.69;4352179;32;36066;-86